Impacts TAF Board INFO
FOR SITUATIONAL AWARENESS. NOT TO BE USED FOR FLIGHT PLANNING PURPOSES.
IDs:

KMDW - Chicago/Midway Intl, IL, US

Issued at 2331 UTC 22 Jun 2018
Updated at 0038 UTC 23 Jun 2018
Potential Impact None Slight Moderate High
Time2353Z 23/01Z 23/02Z 23/03Z 23/04Z 23/05Z 23/06Z 23/07Z 23/08Z 23/09Z 23/10Z 23/11Z 23/12Z 23/13Z>>
Type OBS PRVL
  [TEMP]  
PRVL PRVL PRVL PRVL PRVL PRVL PRVL PRVL PRVL PRVL PRVL PRVL
VIS 9 6
  [3]  
6 6 6 6 6 6 6 4 4 4 4 4
CIG 12 12
  [12]  
12 12 12 12 12 12 12 12 12 12 12 12
Cover OVC OVC
  [OVC]  
OVC OVC OVC OVC OVC OVC OVC OVC OVC OVC OVC OVC
FltCat MVFR MVFR
  [MVFR]  
MVFR MVFR MVFR MVFR MVFR MVFR MVFR MVFR MVFR MVFR MVFR MVFR
WX -- BR VCSH
  [-DZ BR]  
BR VCSH BR VCSH BR VCSH BR VCSH BR VCSH BR VCSH BR VCSH BR BR BR BR BR
WDir 10 10
[10]
10 10 10 10 10 10 10 360 360 360 360 360
WSpd 10 8
  [8]  
8 8 8 8 8 8 8 6 6 6 6 6
WGst -- --
  [--]  
-- -- -- -- -- -- -- -- -- -- -- --

Raw TAF
KMDW 222331Z 2300/2406 01008KT 6SM BR VCSH FEW008 BKN012 OVC020
  TEMPO 2300/2302 3SM -DZ BR
  FM230900 36006KT 4SM BR SCT007 OVC012
  FM231400 35009KT P6SM OVC015
  FM232100 04009KT P6SM SCT035 BKN250


Raw METAR
KMDW 222353Z 01010KT 9SM OVC012 17/15 A2972 RMK AO2 SLP062 60000 T01670150 10178 20167 56004
KMDW 222253Z 01010KT 9SM OVC012 17/15 A2973 RMK AO2 SLP063 T01670150
KMDW 222153Z 02009KT 10SM FEW010 OVC013 17/16 A2972 RMK AO2 DZB01E35 SLP060 P0000 T01720156

METAR Board
Radar Display
Forecast Discussion

FOR SITUATIONAL AWARENESS. NOT TO BE USED FOR FLIGHT PLANNING PURPOSES.